Time;durP1;ratioP1;P1;durP2;ratioP2;P2;SDS_P1;SDS_P2;PMS_P1;PMS_P2;Temp;Humidity;BMP_temperature;BMP_pressure;BME280_temperature;BME280_humidity;BME280_pressure;Samples;Min_cycle;Max_cycle;Signal;HPM_P1;HPM_P2
2021/03/31 00:00:36;;;;;;;7.53;3.90;;;10.40;80.80;;;;;;5113316;28;20203;-61
2021/03/31 00:03:07;;;;;;;4.93;3.90;;;10.20;80.90;;;;;;5113367;28;20228;-61
2021/03/31 00:05:33;;;;;;;6.87;3.90;;;10.20;81.30;;;;;;5113324;28;20245;-61
2021/03/31 00:07:59;;;;;;;6.30;3.80;;;10.10;81.90;;;;;;5113221;28;20264;-61
2021/03/31 00:10:29;;;;;;;7.80;4.40;;;10.00;82.10;;;;;;5113359;28;20215;-61
2021/03/31 00:12:56;;;;;;;6.67;4.03;;;10.00;82.00;;;;;;5113015;28;20234;-61
2021/03/31 00:15:22;;;;;;;9.60;4.17;;;10.10;81.90;;;;;;5113053;28;20235;-61
2021/03/31 00:17:48;;;;;;;6.10;3.87;;;10.10;81.90;;;;;;5112686;28;20663;-61
2021/03/31 00:20:16;;;;;;;6.37;3.73;;;10.10;81.90;;;;;;5113492;28;20209;-61
2021/03/31 00:22:43;;;;;;;6.90;3.83;;;10.10;81.90;;;;;;5113065;28;20276;-61
2021/03/31 00:25:11;;;;;;;8.20;4.13;;;10.00;81.70;;;;;;5112885;28;20260;-61
2021/03/31 00:27:38;;;;;;;6.63;3.90;;;10.10;81.50;;;;;;5112725;28;20204;-61
2021/03/31 00:30:06;;;;;;;6.37;3.83;;;10.10;81.20;;;;;;5112769;28;20241;-61
2021/03/31 00:32:32;;;;;;;6.17;3.67;;;10.10;81.10;;;;;;5112435;28;20247;-61
2021/03/31 00:34:59;;;;;;;5.77;3.87;;;10.10;81.30;;;;;;5112571;28;20199;-61
2021/03/31 00:37:25;;;;;;;6.30;4.10;;;10.10;81.30;;;;;;5112668;28;20208;-61
2021/03/31 00:39:51;;;;;;;7.40;4.37;;;10.00;81.80;;;;;;5112504;28;20203;-61
2021/03/31 00:42:17;;;;;;;6.70;4.00;;;10.00;81.80;;;;;;5112365;28;20251;-61
2021/03/31 00:44:44;;;;;;;9.73;4.37;;;10.00;81.80;;;;;;5112134;28;20249;-61
2021/03/31 00:47:11;;;;;;;8.37;4.10;;;10.00;82.40;;;;;;5112450;28;20203;-61
2021/03/31 00:49:37;;;;;;;6.50;3.97;;;9.90;83.80;;;;;;5112298;28;20207;-61
2021/03/31 00:52:04;;;;;;;7.07;4.50;;;9.80;84.20;;;;;;5112260;28;20223;-61
2021/03/31 00:54:30;;;;;;;5.10;3.93;;;9.70;84.40;;;;;;5112215;28;20231;-62
2021/03/31 00:56:56;;;;;;;6.57;3.90;;;9.60;84.50;;;;;;5112260;28;20203;-61
2021/03/31 00:59:23;;;;;;;7.33;4.10;;;9.60;84.80;;;;;;5111852;28;20207;-61
2021/03/31 01:01:50;;;;;;;8.03;4.20;;;9.50;85.50;;;;;;5112353;28;20199;-62
2021/03/31 01:04:16;;;;;;;7.77;4.77;;;9.50;85.80;;;;;;5111986;28;20231;-61
2021/03/31 01:06:42;;;;;;;10.10;4.13;;;9.40;86.00;;;;;;5112111;28;20239;-61
2021/03/31 01:09:09;;;;;;;5.27;3.73;;;9.30;86.30;;;;;;5112071;28;20308;-61
2021/03/31 01:11:42;;;;;;;6.13;4.03;;;9.30;86.80;;;;;;5111831;28;20223;-61
2021/03/31 01:14:18;;;;;;;8.97;4.10;;;9.20;87.00;;;;;;5111599;28;20242;-61
2021/03/31 01:16:49;;;;;;;5.97;4.13;;;9.20;87.50;;;;;;5112200;28;20214;-61
2021/03/31 01:19:44;;;;;;;7.20;4.40;;;9.00;87.60;;;;;;5112295;28;20458;-61
2021/03/31 01:22:47;;;;;;;8.93;4.20;;;9.00;87.90;;;;;;5111796;28;20199;-61
2021/03/31 01:25:16;;;;;;;6.13;3.90;;;8.90;88.30;;;;;;5111705;28;20686;-61
2021/03/31 01:28:16;;;;;;;5.87;3.80;;;8.90;88.80;;;;;;5111326;28;20293;-61
2021/03/31 01:30:52;;;;;;;5.43;3.73;;;8.80;89.00;;;;;;5111575;28;20250;-62
2021/03/31 01:33:48;;;;;;;9.40;4.10;;;8.80;88.90;;;;;;5111763;28;20226;-61
2021/03/31 01:36:19;;;;;;;6.60;4.20;;;8.70;89.20;;;;;;5111550;28;20736;-61
2021/03/31 01:38:48;;;;;;;7.40;4.20;;;8.70;89.60;;;;;;5111403;28;20199;-61
2021/03/31 01:41:18;;;;;;;5.30;4.17;;;8.60;89.60;;;;;;5111391;28;20462;-61
2021/03/31 01:43:48;;;;;;;7.10;3.97;;;8.60;89.60;;;;;;5111417;28;20227;-61
2021/03/31 01:46:15;;;;;;;8.40;5.13;;;8.60;89.40;;;;;;5111636;28;20203;-61
2021/03/31 01:48:41;;;;;;;12.90;6.77;;;8.60;89.90;;;;;;5111456;28;20473;-61
2021/03/31 01:51:10;;;;;;;14.00;6.67;;;8.60;89.90;;;;;;5111287;28;20219;-61
2021/03/31 01:53:38;;;;;;;21.77;12.80;;;8.60;90.00;;;;;;5110981;28;20262;-61
2021/03/31 01:56:05;;;;;;;21.40;13.60;;;8.50;89.80;;;;;;5111505;28;20339;-61
2021/03/31 01:58:33;;;;;;;21.77;14.90;;;8.60;89.80;;;;;;5111142;28;20207;-62
2021/03/31 02:00:59;;;;;;;15.63;10.87;;;8.60;89.70;;;;;;5111402;28;20277;-62
2021/03/31 02:03:29;;;;;;;10.17;5.23;;;8.60;90.00;;;;;;5111267;28;20300;-62
2021/03/31 02:05:56;;;;;;;16.37;11.23;;;8.60;90.00;;;;;;5111232;28;20203;-62
2021/03/31 02:08:23;;;;;;;6.03;4.40;;;8.60;90.00;;;;;;5111377;28;20207;-62
2021/03/31 02:10:52;;;;;;;8.33;5.93;;;8.50;90.20;;;;;;5111060;28;20695;-62
2021/03/31 02:13:18;;;;;;;10.73;5.97;;;8.40;90.40;;;;;;5111120;28;20226;-62
2021/03/31 02:15:47;;;;;;;8.00;5.40;;;8.30;90.70;;;;;;5111505;28;20206;-61
2021/03/31 02:18:17;;;;;;;8.00;4.40;;;8.20;90.70;;;;;;5111060;28;20224;-62
2021/03/31 02:20:45;;;;;;;7.73;4.10;;;8.20;90.80;;;;;;5111013;28;20656;-62
2021/03/31 02:23:11;;;;;;;8.87;4.70;;;8.20;90.90;;;;;;5110901;28;20715;-62
2021/03/31 02:25:38;;;;;;;7.03;3.70;;;8.10;91.00;;;;;;5111196;28;20203;-62
2021/03/31 02:28:05;;;;;;;8.03;4.37;;;8.10;91.10;;;;;;5110985;28;20207;-62
2021/03/31 02:30:32;;;;;;;9.20;4.10;;;8.10;91.20;;;;;;5111149;28;20211;-62
2021/03/31 02:33:00;;;;;;;6.50;4.17;;;8.00;91.30;;;;;;5111395;28;20220;-62
2021/03/31 02:35:28;;;;;;;6.77;4.80;;;8.00;91.50;;;;;;5110892;28;20207;-62
2021/03/31 02:37:58;;;;;;;11.07;6.93;;;8.00;91.50;;;;;;5111035;28;20204;-62
2021/03/31 02:40:26;;;;;;;10.30;5.83;;;7.90;91.70;;;;;;5113658;28;20209;-62
2021/03/31 02:42:53;;;;;;;12.23;5.77;;;7.90;91.80;;;;;;5115070;28;20230;-62
2021/03/31 02:45:23;;;;;;;6.53;4.63;;;7.80;91.80;;;;;;5114727;28;20615;-62
2021/03/31 02:47:50;;;;;;;5.77;4.10;;;7.80;92.00;;;;;;5114603;28;20234;-62
2021/03/31 02:50:20;;;;;;;6.00;4.20;;;7.70;92.10;;;;;;5114726;28;20210;-61
2021/03/31 02:52:48;;;;;;;6.73;4.60;;;7.60;92.10;;;;;;5131359;22;20332;-68
2021/03/31 02:55:16;;;;;;;6.83;4.90;;;7.60;92.20;;;;;;5054720;28;20208;-67
2021/03/31 02:57:43;;;;;;;7.83;4.03;;;7.60;92.40;;;;;;5054240;28;20209;-68
2021/03/31 03:00:12;;;;;;;7.93;4.80;;;7.60;92.50;;;;;;5054889;28;20206;-67
2021/03/31 03:02:41;;;;;;;6.90;4.27;;;7.60;92.40;;;;;;5054150;28;20229;-68
2021/03/31 03:05:09;;;;;;;5.90;4.17;;;7.60;92.50;;;;;;5054366;28;20208;-68
2021/03/31 03:07:37;;;;;;;9.20;4.33;;;7.60;92.70;;;;;;5054188;28;20213;-68
2021/03/31 03:10:04;;;;;;;6.77;4.20;;;7.50;92.80;;;;;;5054441;28;20218;-67
2021/03/31 03:12:32;;;;;;;6.53;4.40;;;7.50;92.80;;;;;;5054874;28;20226;-67
2021/03/31 03:14:58;;;;;;;6.53;4.17;;;7.40;93.10;;;;;;5054900;28;20198;-67
2021/03/31 03:17:25;;;;;;;6.97;4.13;;;7.30;93.30;;;;;;5055060;28;20206;-67
2021/03/31 03:19:53;;;;;;;5.93;4.20;;;7.30;93.40;;;;;;5054761;28;20214;-67
2021/03/31 03:22:19;;;;;;;8.70;4.07;;;7.30;93.50;;;;;;5054744;28;20584;-67
2021/03/31 03:24:48;;;;;;;4.77;3.93;;;7.30;93.30;;;;;;5054203;28;20283;-68
2021/03/31 03:27:16;;;;;;;7.97;4.47;;;7.50;93.10;;;;;;5054583;28;20267;-67
2021/03/31 03:29:44;;;;;;;7.10;4.23;;;7.60;92.90;;;;;;5054400;28;20232;-68
2021/03/31 03:32:11;;;;;;;7.00;4.30;;;7.60;92.90;;;;;;5054744;28;20226;-67
2021/03/31 03:34:38;;;;;;;9.90;5.03;;;7.60;92.70;;;;;;5054430;28;20229;-66
2021/03/31 03:37:06;;;;;;;8.27;4.93;;;7.70;92.80;;;;;;5054557;28;20213;-67
2021/03/31 03:39:32;;;;;;;7.40;4.50;;;7.60;92.90;;;;;;5053749;28;20202;-68
2021/03/31 03:41:59;;;;;;;10.90;5.07;;;7.60;92.90;;;;;;5053925;28;20692;-67
2021/03/31 03:44:25;;;;;;;7.33;5.00;;;7.50;93.10;;;;;;5053775;28;20276;-67
2021/03/31 03:46:54;;;;;;;7.50;4.93;;;7.50;93.30;;;;;;5053851;28;20267;-66
2021/03/31 03:49:21;;;;;;;11.83;4.30;;;7.40;93.40;;;;;;5053527;28;20247;-66
2021/03/31 03:51:48;;;;;;;9.90;5.47;;;7.40;93.40;;;;;;5052674;28;20237;-67
2021/03/31 03:54:16;;;;;;;11.00;5.83;;;7.50;93.40;;;;;;5052926;28;20237;-67
2021/03/31 03:56:47;;;;;;;8.33;5.20;;;7.50;93.30;;;;;;5054191;28;20205;-67
2021/03/31 03:59:20;;;;;;;6.80;4.93;;;7.50;93.20;;;;;;5052967;28;20206;-67
2021/03/31 04:01:46;;;;;;;9.30;5.93;;;7.60;93.10;;;;;;5053520;28;20202;-67
2021/03/31 04:04:13;;;;;;;12.17;6.30;;;7.60;93.10;;;;;;5052966;28;20230;-67
2021/03/31 04:06:39;;;;;;;11.63;6.53;;;7.60;93.00;;;;;;5052976;28;20216;-67
2021/03/31 04:09:06;;;;;;;11.73;6.80;;;7.60;93.00;;;;;;5053131;28;20209;-67
2021/03/31 04:11:34;;;;;;;9.43;6.40;;;7.60;93.10;;;;;;5052993;28;20222;-68
2021/03/31 04:14:02;;;;;;;9.80;5.60;;;7.60;93.30;;;;;;5052789;28;20226;-68
2021/03/31 04:16:30;;;;;;;10.70;5.20;;;7.50;93.50;;;;;;5053357;28;20269;-68
2021/03/31 04:19:00;;;;;;;11.70;5.83;;;7.40;93.60;;;;;;5053022;28;20210;-68
2021/03/31 04:21:28;;;;;;;8.83;6.00;;;7.40;93.70;;;;;;5052629;28;20217;-68
2021/03/31 04:23:54;;;;;;;8.60;5.73;;;7.40;93.70;;;;;;5053370;28;20283;-67
2021/03/31 04:26:23;;;;;;;7.70;5.60;;;7.40;93.70;;;;;;5053347;28;20213;-68
2021/03/31 04:28:50;;;;;;;10.23;5.83;;;7.40;93.60;;;;;;5052816;28;20518;-68
2021/03/31 04:31:18;;;;;;;9.20;4.93;;;7.40;93.70;;;;;;5052566;28;20593;-68
2021/03/31 04:33:44;;;;;;;11.60;5.53;;;7.40;93.80;;;;;;5052408;28;20717;-68
2021/03/31 04:36:11;;;;;;;9.23;5.67;;;7.40;93.90;;;;;;5053024;28;20629;-68
2021/03/31 04:38:44;;;;;;;7.23;5.20;;;7.40;94.00;;;;;;5052989;28;20212;-67
2021/03/31 04:41:11;;;;;;;11.20;5.43;;;7.30;94.00;;;;;;5052876;28;20209;-68
2021/03/31 04:43:38;;;;;;;8.87;5.30;;;7.30;94.10;;;;;;5053171;28;20597;-67
2021/03/31 04:46:08;;;;;;;9.57;5.90;;;7.30;94.10;;;;;;5053516;28;20276;-68
2021/03/31 04:48:35;;;;;;;8.93;5.47;;;7.40;94.10;;;;;;5053554;28;20656;-67
2021/03/31 04:51:02;;;;;;;10.77;5.80;;;7.40;94.00;;;;;;5054172;28;20236;-67
2021/03/31 04:53:28;;;;;;;9.27;5.63;;;7.40;93.90;;;;;;5053012;28;20719;-67
2021/03/31 04:55:54;;;;;;;11.40;5.93;;;7.50;93.90;;;;;;5053254;28;20205;-68
2021/03/31 04:58:21;;;;;;;9.57;5.53;;;7.50;93.90;;;;;;5053095;28;20631;-68
2021/03/31 05:00:47;;;;;;;11.33;5.80;;;7.50;94.00;;;;;;5053308;28;20217;-68
2021/03/31 05:03:14;;;;;;;7.90;5.67;;;7.40;94.10;;;;;;5051492;28;20230;-68
2021/03/31 05:05:40;;;;;;;9.07;5.43;;;7.50;94.20;;;;;;5052454;28;20210;-68
2021/03/31 05:08:07;;;;;;;10.23;5.23;;;7.60;94.20;;;;;;5051927;28;20216;-68
2021/03/31 05:10:34;;;;;;;9.77;5.80;;;7.60;94.10;;;;;;5051830;28;20581;-67
2021/03/31 05:13:01;;;;;;;11.93;5.67;;;7.70;93.90;;;;;;5051866;28;20647;-67
2021/03/31 05:15:27;;;;;;;19.97;11.40;;;7.90;93.80;;;;;;5051726;28;20534;-68
2021/03/31 05:17:53;;;;;;;14.23;9.37;;;7.90;93.70;;;;;;5051114;28;20263;-68
2021/03/31 05:20:21;;;;;;;12.40;7.50;;;7.90;93.60;;;;;;5051597;28;20212;-68
2021/03/31 05:22:47;;;;;;;10.93;5.70;;;7.90;93.60;;;;;;5051432;28;20719;-67
2021/03/31 05:25:14;;;;;;;13.60;7.20;;;8.00;93.60;;;;;;5051247;28;20213;-68
2021/03/31 05:27:40;;;;;;;12.73;6.97;;;8.00;93.50;;;;;;5051193;28;20267;-68
2021/03/31 05:30:08;;;;;;;11.70;6.50;;;8.10;93.40;;;;;;5051601;28;20210;-67
2021/03/31 05:32:34;;;;;;;8.93;6.17;;;8.10;93.40;;;;;;5051009;28;20272;-68
2021/03/31 05:35:00;;;;;;;13.53;6.27;;;8.10;93.50;;;;;;5051298;28;20209;-68
2021/03/31 05:37:27;;;;;;;11.50;6.70;;;8.10;93.60;;;;;;5051301;28;20727;-68
2021/03/31 05:39:54;;;;;;;9.23;6.97;;;8.10;93.40;;;;;;5051177;28;20210;-68
2021/03/31 05:42:20;;;;;;;12.37;7.50;;;8.30;93.20;;;;;;5051292;28;20237;-68
2021/03/31 05:44:47;;;;;;;15.30;6.83;;;8.40;93.10;;;;;;5050982;28;20225;-67
2021/03/31 05:47:20;;;;;;;10.37;7.23;;;8.50;92.90;;;;;;5053230;28;20209;-67
2021/03/31 05:49:48;;;;;;;10.83;6.40;;;8.50;92.80;;;;;;5053954;28;20281;-67
2021/03/31 05:52:14;;;;;;;13.10;6.77;;;8.50;92.80;;;;;;5053070;28;20701;-67
2021/03/31 05:54:41;;;;;;;15.27;6.33;;;8.50;92.90;;;;;;5053782;28;20256;-67
2021/03/31 05:57:08;;;;;;;12.17;6.43;;;8.60;92.90;;;;;;5054835;28;20205;-68
2021/03/31 05:59:36;;;;;;;11.40;6.30;;;8.80;92.80;;;;;;5053201;28;20197;-67
2021/03/31 06:02:03;;;;;;;18.67;6.97;;;9.00;92.80;;;;;;5053112;28;20205;-68
2021/03/31 06:04:30;;;;;;;17.23;7.27;;;9.90;92.00;;;;;;5052808;28;20233;-67
2021/03/31 06:06:56;;;;;;;13.53;6.80;;;11.20;89.50;;;;;;5052419;28;20206;-67
2021/03/31 06:09:23;;;;;;;16.17;7.00;;;12.70;84.80;;;;;;5052074;28;20214;-67
2021/03/31 06:11:51;;;;;;;13.00;6.33;;;14.00;80.40;;;;;;5051263;28;20647;-67
2021/03/31 06:14:31;;;;;;;9.63;7.10;;;15.10;77.00;;;;;;5051805;28;20232;-67
2021/03/31 06:17:06;;;;;;;12.47;6.97;;;15.80;73.10;;;;;;5055852;28;20299;-69
2021/03/31 06:19:33;;;;;;;10.27;6.20;;;16.10;71.60;;;;;;5055949;28;20212;-68
2021/03/31 06:22:04;;;;;;;8.87;5.57;;;16.00;71.10;;;;;;5057019;28;20346;-69
2021/03/31 06:24:33;;;;;;;9.33;5.80;;;15.70;71.30;;;;;;5055288;28;20264;-69
2021/03/31 06:27:01;;;;;;;10.00;6.20;;;15.50;71.60;;;;;;5055875;28;20681;-69
2021/03/31 06:29:37;;;;;;;11.97;5.97;;;15.40;71.40;;;;;;5055249;28;20568;-69
2021/03/31 06:32:14;;;;;;;10.10;5.47;;;15.20;72.00;;;;;;5055467;28;20708;-69
2021/03/31 06:34:52;;;;;;;11.03;6.07;;;15.20;71.70;;;;;;5055698;28;20240;-70
2021/03/31 06:37:28;;;;;;;9.83;5.90;;;15.60;70.70;;;;;;5055678;28;20201;-69
2021/03/31 06:39:55;;;;;;;7.97;5.80;;;16.20;69.90;;;;;;5054956;28;20209;-58
2021/03/31 06:42:36;;;;;;;7.57;5.73;;;16.90;68.50;;;;;;5054287;28;20201;-62
2021/03/31 06:45:06;;;;;;;11.93;5.87;;;18.00;66.90;;;;;;5054171;28;20244;-61
2021/03/31 06:47:35;;;;;;;12.73;5.43;;;19.30;62.40;;;;;;5053985;28;20228;-62
2021/03/31 06:50:06;;;;;;;10.53;6.67;;;19.90;60.30;;;;;;5054296;28;20209;-61
2021/03/31 06:52:33;;;;;;;9.48;5.80;;;19.90;59.50;;;;;;5053930;28;20279;-61
2021/03/31 06:55:03;;;;;;;8.73;5.75;;;19.80;60.10;;;;;;5053953;28;20212;-61
2021/03/31 06:57:31;;;;;;;9.38;5.95;;;19.70;59.40;;;;;;5054082;28;20312;-61
2021/03/31 07:00:06;;;;;;;9.30;5.68;;;19.50;59.90;;;;;;5053829;28;20205;-62
2021/03/31 07:02:33;;;;;;;12.07;6.03;;;19.50;60.50;;;;;;5054213;28;20262;-62
2021/03/31 07:05:00;;;;;;;11.13;6.18;;;19.60;59.80;;;;;;5053755;28;20218;-61
2021/03/31 07:07:31;;;;;;;13.38;6.53;;;19.80;59.00;;;;;;5054639;28;20210;-63
2021/03/31 07:10:05;;;;;;;10.75;6.30;;;19.80;59.00;;;;;;5054272;28;20210;-62
2021/03/31 07:12:37;;;;;;;12.73;7.15;;;19.80;58.60;;;;;;5053631;28;20248;-61
2021/03/31 07:15:05;;;;;;;11.88;6.13;;;19.60;58.90;;;;;;5054192;28;20213;-63
2021/03/31 07:17:32;;;;;;;11.75;6.65;;;19.40;59.10;;;;;;5053356;28;20202;-64
2021/03/31 07:19:58;;;;;;;9.88;6.65;;;19.00;59.30;;;;;;5054349;28;20205;-64
2021/03/31 07:22:25;;;;;;;10.07;6.90;;;18.50;60.50;;;;;;5053922;28;20205;-63
2021/03/31 07:24:53;;;;;;;9.60;6.80;;;18.40;61.00;;;;;;5053673;28;20230;-66
2021/03/31 07:27:23;;;;;;;15.57;6.87;;;18.60;60.40;;;;;;5053598;28;20208;-66
2021/03/31 07:32:44;;;;;;;12.35;7.60;;;19.00;59.90;;;;;;5050231;28;20216;-63
2021/03/31 07:35:11;;;;;;;11.57;7.45;;;19.10;58.90;;;;;;5053827;28;20210;-64
2021/03/31 07:37:39;;;;;;;11.82;7.55;;;19.60;58.40;;;;;;5054008;28;20206;-62
2021/03/31 07:40:08;;;;;;;12.38;7.47;;;20.40;56.90;;;;;;5054163;28;20237;-65
2021/03/31 07:42:37;;;;;;;11.18;7.45;;;21.00;55.70;;;;;;5054636;28;20665;-63
2021/03/31 07:45:07;;;;;;;16.15;8.90;;;21.30;55.00;;;;;;5053903;28;20575;-65
2021/03/31 07:47:34;;;;;;;14.55;7.53;;;21.70;54.30;;;;;;5054436;28;20285;-69
2021/03/31 07:50:01;;;;;;;11.43;7.70;;;22.40;53.80;;;;;;5054243;28;20210;-65
2021/03/31 07:52:48;;;;;;;10.00;7.18;;;22.50;52.80;;;;;;5054201;28;20233;-63
2021/03/31 07:55:32;;;;;;;11.80;7.38;;;22.00;53.20;;;;;;5053271;28;20211;-62
2021/03/31 07:58:19;;;;;;;11.13;7.65;;;22.10;53.20;;;;;;5052870;28;20205;-64
2021/03/31 08:00:56;;;;;;;12.27;8.25;;;23.10;52.00;;;;;;5053175;28;20254;-64
2021/03/31 08:03:24;;;;;;;10.35;6.60;;;24.20;50.50;;;;;;5052978;28;20268;-65
2021/03/31 08:06:12;;;;;;;10.93;6.90;;;24.80;49.10;;;;;;5053607;28;20653;-63
2021/03/31 08:08:57;;;;;;;10.90;7.50;;;24.80;49.20;;;;;;5052883;28;20205;-63
2021/03/31 08:11:47;;;;;;;12.40;6.90;;;24.00;49.70;;;;;;5052775;28;20210;-66
2021/03/31 08:14:15;;;;;;;9.32;6.45;;;22.90;50.90;;;;;;5052642;28;20688;-63
2021/03/31 08:16:44;;;;;;;12.68;6.50;;;21.60;52.60;;;;;;5052558;28;20210;-63
2021/03/31 08:19:13;;;;;;;8.98;7.20;;;20.50;54.50;;;;;;5052369;28;20210;-65
2021/03/31 08:21:41;;;;;;;16.13;6.70;;;19.70;56.30;;;;;;5052626;28;20615;-65
2021/03/31 08:24:08;;;;;;;11.23;7.80;;;19.00;57.90;;;;;;5052442;28;20603;-64
2021/03/31 08:26:38;;;;;;;13.23;7.05;;;18.70;58.70;;;;;;5052687;28;20206;-63
2021/03/31 08:29:06;;;;;;;9.38;6.45;;;18.50;59.80;;;;;;5052386;28;20206;-65
2021/03/31 08:31:37;;;;;;;8.88;6.22;;;18.30;60.20;;;;;;5052535;28;20252;-64
2021/03/31 08:34:04;;;;;;;13.97;6.87;;;18.20;60.60;;;;;;5052940;28;20284;-64
2021/03/31 08:36:30;;;;;;;10.32;6.82;;;18.20;60.50;;;;;;5052584;28;20209;-63
2021/03/31 08:38:59;;;;;;;10.80;6.90;;;18.10;60.90;;;;;;5052111;28;20292;-63
2021/03/31 08:41:26;;;;;;;13.77;8.07;;;18.10;61.50;;;;;;5053849;28;20213;-64
2021/03/31 08:44:12;;;;;;;14.00;7.38;;;18.20;61.10;;;;;;5053542;28;20248;-66
2021/03/31 08:46:40;;;;;;;8.63;6.72;;;18.30;61.30;;;;;;5053101;28;20304;-65
2021/03/31 08:49:07;;;;;;;15.17;7.80;;;18.40;60.30;;;;;;5052596;28;20263;-66
2021/03/31 08:51:40;;;;;;;13.93;6.80;;;18.40;60.10;;;;;;5051954;28;20703;-66
2021/03/31 08:54:06;;;;;;;13.13;6.70;;;18.50;60.50;;;;;;5085697;22;20224;-63
2021/03/31 08:56:33;;;;;;;15.73;7.25;;;18.50;60.60;;;;;;5091854;28;20208;-65
2021/03/31 08:58:59;;;;;;;15.20;7.60;;;18.60;60.90;;;;;;5091837;28;20200;-64
2021/03/31 09:01:26;;;;;;;12.10;7.30;;;18.50;61.10;;;;;;5091746;28;20204;-64
2021/03/31 09:04:08;;;;;;;13.50;6.95;;;18.50;61.60;;;;;;5091497;28;20723;-60
2021/03/31 09:06:37;;;;;;;9.98;6.75;;;18.50;61.90;;;;;;5091120;28;20208;-61
2021/03/31 09:09:03;;;;;;;13.45;6.75;;;18.40;61.80;;;;;;5091382;28;20242;-62
2021/03/31 09:11:30;;;;;;;12.25;7.95;;;18.40;61.90;;;;;;5091505;28;20306;-62
2021/03/31 09:13:56;;;;;;;9.20;6.93;;;18.50;61.50;;;;;;5091299;28;20573;-64
2021/03/31 09:16:24;;;;;;;11.40;6.90;;;18.60;61.40;;;;;;5091862;28;20204;-63
2021/03/31 09:18:51;;;;;;;13.77;7.40;;;18.70;60.40;;;;;;5092014;28;20235;-63
2021/03/31 09:21:26;;;;;;;10.85;7.60;;;18.80;60.00;;;;;;5091621;28;20204;-63
2021/03/31 09:23:53;;;;;;;11.32;7.15;;;18.80;57.60;;;;;;5091257;28;20224;-63
2021/03/31 09:26:22;;;;;;;13.77;7.43;;;18.90;57.80;;;;;;5091513;28;20229;-62
2021/03/31 09:28:48;;;;;;;15.43;7.80;;;19.10;58.00;;;;;;5091274;28;20204;-63
2021/03/31 09:31:22;;;;;;;13.63;6.85;;;19.20;58.10;;;;;;5091623;28;20208;-63
2021/03/31 09:33:49;;;;;;;14.00;7.63;;;19.30;58.10;;;;;;5091208;28;20224;-63
2021/03/31 09:36:17;;;;;;;11.18;7.60;;;19.40;58.00;;;;;;5091100;28;20212;-63
2021/03/31 09:38:45;;;;;;;11.80;7.75;;;19.60;57.40;;;;;;5091133;28;20210;-63
2021/03/31 09:41:13;;;;;;;11.50;7.13;;;19.70;57.20;;;;;;5090906;28;20671;-63
2021/03/31 09:43:39;;;;;;;13.07;7.85;;;19.80;57.30;;;;;;5090789;28;20252;-64
2021/03/31 09:46:07;;;;;;;17.50;7.70;;;19.80;57.40;;;;;;5090903;28;20569;-64
2021/03/31 09:48:35;;;;;;;11.68;7.28;;;19.90;57.20;;;;;;5090422;28;20659;-64
2021/03/31 09:51:11;;;;;;;14.35;7.78;;;19.90;57.10;;;;;;5090574;28;20560;-62
2021/03/31 09:53:37;;;;;;;12.30;7.43;;;20.10;56.50;;;;;;5090252;28;20232;-62
2021/03/31 09:56:04;;;;;;;12.88;7.10;;;20.20;56.40;;;;;;5090928;28;20204;-62
2021/03/31 09:58:32;;;;;;;10.45;7.03;;;20.30;56.00;;;;;;5090602;28;20289;-62
2021/03/31 10:00:58;;;;;;;10.32;7.75;;;20.50;56.70;;;;;;5090554;28;20265;-62
2021/03/31 10:03:26;;;;;;;12.95;7.53;;;20.60;55.90;;;;;;5090451;28;20220;-62
2021/03/31 10:05:52;;;;;;;12.93;8.35;;;20.60;56.00;;;;;;5089177;28;20447;-65
2021/03/31 10:08:23;;;;;;;10.90;7.53;;;20.80;55.50;;;;;;5089574;28;20219;-65
2021/03/31 10:10:50;;;;;;;12.38;7.57;;;20.90;55.10;;;;;;5090582;28;20717;-64
2021/03/31 10:13:18;;;;;;;16.83;7.53;;;21.10;55.00;;;;;;5090860;28;20227;-64
2021/03/31 10:15:55;;;;;;;10.32;7.25;;;21.10;54.50;;;;;;5090350;28;20208;-65
2021/03/31 10:18:22;;;;;;;13.70;7.13;;;21.20;54.40;;;;;;5090617;28;20211;-61
2021/03/31 10:20:49;;;;;;;16.83;7.88;;;21.30;54.80;;;;;;5090699;28;20678;-62
2021/03/31 10:23:24;;;;;;;9.82;7.20;;;21.40;54.80;;;;;;5083459;28;20228;-63
2021/03/31 10:25:50;;;;;;;10.38;7.05;;;21.50;53.40;;;;;;5070084;28;20219;-65
2021/03/31 10:28:34;;;;;;;11.07;7.70;;;21.50;52.80;;;;;;5070271;28;20204;-66
2021/03/31 10:31:27;;;;;;;10.55;7.00;;;21.50;53.00;;;;;;5070232;28;20248;-65
2021/03/31 10:33:54;;;;;;;14.02;7.13;;;21.60;53.00;;;;;;5070322;28;20252;-65
2021/03/31 10:36:44;;;;;;;10.15;6.20;;;21.70;52.80;;;;;;5070518;28;20678;-63
2021/03/31 10:48:07;;;;;;;10.63;6.55;;;22.10;50.30;;;;;;5070594;28;20207;-61
2021/03/31 10:50:39;;;;;;;15.75;8.73;;;22.10;51.60;;;;;;5070395;28;20240;-62
2021/03/31 10:53:06;;;;;;;10.02;6.82;;;22.20;52.10;;;;;;5069894;28;20243;-61
2021/03/31 10:55:32;;;;;;;9.63;6.78;;;22.30;52.00;;;;;;5070360;28;20209;-62
2021/03/31 10:57:58;;;;;;;13.20;7.10;;;22.40;50.80;;;;;;5070142;28;20243;-62
2021/03/31 11:00:25;;;;;;;13.65;6.88;;;22.60;49.90;;;;;;5071178;28;20687;-62
2021/03/31 11:02:53;;;;;;;14.30;9.45;;;22.70;49.50;;;;;;5073754;28;20208;-62
2021/03/31 11:05:20;;;;;;;11.35;7.93;;;22.80;49.60;;;;;;5073698;28;20208;-63
2021/03/31 11:07:46;;;;;;;9.52;6.72;;;22.90;48.60;;;;;;5073590;28;20209;-60
2021/03/31 11:10:13;;;;;;;8.38;6.43;;;23.00;49.10;;;;;;5074126;28;20205;-62
2021/03/31 11:12:39;;;;;;;9.30;6.38;;;23.10;47.30;;;;;;5073715;28;20259;-61
2021/03/31 11:15:08;;;;;;;8.75;6.70;;;23.20;47.40;;;;;;5073686;28;20267;-60
2021/03/31 11:17:39;;;;;;;14.00;7.40;;;23.30;47.00;;;;;;5073513;28;20262;-61
2021/03/31 11:20:18;;;;;;;10.20;6.13;;;23.40;46.60;;;;;;5074042;28;20201;-60
2021/03/31 11:25:45;;;;;;;11.70;6.55;;;23.50;46.00;;;;;;5042015;28;20193;-60
2021/03/31 11:28:11;;;;;;;8.23;6.18;;;23.50;46.40;;;;;;5073351;28;20232;-61
2021/03/31 11:30:37;;;;;;;12.07;6.38;;;23.60;46.40;;;;;;5073169;28;20215;-60
2021/03/31 11:33:04;;;;;;;10.98;6.20;;;23.80;45.60;;;;;;5073553;28;20252;-60
2021/03/31 11:35:31;;;;;;;11.07;7.28;;;24.00;45.80;;;;;;5073349;28;20209;-61
2021/03/31 11:37:57;;;;;;;16.70;7.78;;;24.00;44.60;;;;;;5073220;28;20258;-61
2021/03/31 11:40:24;;;;;;;11.43;7.80;;;24.00;44.30;;;;;;5073178;28;20212;-61
2021/03/31 11:42:50;;;;;;;10.18;7.55;;;24.10;43.80;;;;;;5073141;28;20632;-62
2021/03/31 11:45:16;;;;;;;12.63;7.50;;;24.10;43.90;;;;;;5073326;28;20201;-61
2021/03/31 11:47:43;;;;;;;13.73;7.68;;;24.20;44.30;;;;;;5073193;28;20212;-61
2021/03/31 11:50:10;;;;;;;9.32;7.03;;;24.40;43.40;;;;;;5073336;28;20216;-61
2021/03/31 11:52:37;;;;;;;13.15;7.88;;;24.40;42.70;;;;;;5072845;28;20711;-61
2021/03/31 11:55:04;;;;;;;9.45;7.13;;;24.50;42.50;;;;;;5072514;28;20720;-62
2021/03/31 11:57:31;;;;;;;10.68;6.95;;;24.50;42.60;;;;;;5072671;28;20205;-61
2021/03/31 11:59:57;;;;;;;10.50;6.57;;;24.60;42.50;;;;;;5072276;28;20208;-61
2021/03/31 12:02:23;;;;;;;8.45;6.30;;;24.60;41.70;;;;;;5073084;28;20201;-62
2021/03/31 12:04:49;;;;;;;7.35;5.38;;;24.50;41.50;;;;;;5072600;28;20228;-61
2021/03/31 12:07:16;;;;;;;10.10;7.00;;;24.40;40.70;;;;;;5072611;28;20262;-61
2021/03/31 12:09:43;;;;;;;8.57;6.20;;;24.50;40.60;;;;;;5072338;28;20234;-60
2021/03/31 12:12:11;;;;;;;9.07;6.15;;;24.60;42.00;;;;;;5071709;28;20225;-61
2021/03/31 12:14:37;;;;;;;10.55;5.63;;;24.50;40.30;;;;;;5072074;28;20278;-61
2021/03/31 12:17:04;;;;;;;9.15;4.93;;;24.50;40.10;;;;;;5072323;28;20699;-62
2021/03/31 12:19:31;;;;;;;7.38;5.30;;;24.50;39.50;;;;;;5072128;28;20220;-59
2021/03/31 12:21:57;;;;;;;10.45;7.13;;;24.60;39.10;;;;;;5072200;28;20204;-60
2021/03/31 12:24:25;;;;;;;7.85;5.78;;;24.60;39.70;;;;;;5071928;28;20225;-60
2021/03/31 12:26:52;;;;;;;8.90;5.72;;;24.80;40.00;;;;;;5071872;28;20636;-60
2021/03/31 12:29:19;;;;;;;9.52;6.20;;;24.80;39.20;;;;;;5071842;28;20237;-60
2021/03/31 12:31:46;;;;;;;8.32;6.15;;;24.80;39.60;;;;;;5071941;28;20753;-60
2021/03/31 12:34:12;;;;;;;9.40;6.35;;;24.80;39.50;;;;;;5072051;28;20620;-60
2021/03/31 12:36:38;;;;;;;9.10;6.65;;;24.80;39.90;;;;;;5071715;28;20639;-59
2021/03/31 12:39:05;;;;;;;10.10;6.10;;;24.80;39.60;;;;;;5072200;28;20205;-59
2021/03/31 12:41:33;;;;;;;12.07;7.90;;;24.90;39.30;;;;;;5071773;28;20211;-60
2021/03/31 12:44:00;;;;;;;8.65;6.47;;;25.00;39.30;;;;;;5071775;28;20256;-61
2021/03/31 12:46:27;;;;;;;10.00;6.03;;;25.00;39.10;;;;;;5071819;28;20692;-61
2021/03/31 12:48:53;;;;;;;7.10;5.72;;;25.10;39.40;;;;;;5071466;28;20208;-61
2021/03/31 12:51:28;;;;;;;8.70;5.60;;;25.20;39.50;;;;;;5071730;28;20243;-62
2021/03/31 12:53:59;;;;;;;10.43;5.03;;;25.30;37.60;;;;;;5071202;28;20529;-61
2021/03/31 12:56:26;;;;;;;12.20;6.07;;;25.30;37.30;;;;;;5071997;28;20213;-61
2021/03/31 12:58:52;;;;;;;7.43;5.28;;;25.40;37.60;;;;;;5071532;28;20289;-60
2021/03/31 13:01:23;;;;;;;7.63;4.90;;;25.30;36.40;;;;;;5071625;28;20205;-61
2021/03/31 13:03:50;;;;;;;6.55;4.88;;;25.40;35.90;;;;;;5071329;28;20221;-61
2021/03/31 13:06:16;;;;;;;10.25;5.82;;;25.40;35.90;;;;;;5071542;28;20315;-62
2021/03/31 13:08:43;;;;;;;8.25;5.80;;;25.60;37.00;;;;;;5070795;28;20694;-61